Time;durP1;ratioP1;P1;durP2;ratioP2;P2;SDS_P1;SDS_P2;PMS_P1;PMS_P2;Temp;Humidity;BMP_temperature;BMP_pressure;BME280_temperature;BME280_humidity;BME280_pressure;Samples;Min_cycle;Max_cycle;Signal;HPM_P1;HPM_P2
2022/03/05 00:01:06;;;;;;;5.53;3.25;;;3.00;1.00;;;;;;5049617;28;20939;-50
2022/03/05 00:03:34;;;;;;;4.90;3.00;;;3.00;1.00;;;;;;5050527;28;20486;-54
2022/03/05 00:06:01;;;;;;;7.25;2.78;;;3.00;1.00;;;;;;5054515;28;20433;-56
2022/03/05 00:08:29;;;;;;;5.27;2.70;;;3.00;1.00;;;;;;5054420;28;20507;-55
2022/03/05 00:10:56;;;;;;;4.85;2.65;;;3.00;1.00;;;;;;5054197;28;20433;-56
2022/03/05 00:13:24;;;;;;;6.68;3.15;;;3.00;1.00;;;;;;5051519;28;20437;-54
2022/03/05 00:15:51;;;;;;;5.00;2.90;;;3.00;1.00;;;;;;5053408;28;20463;-54
2022/03/05 00:18:18;;;;;;;6.75;2.50;;;2.90;1.00;;;;;;5051982;28;20670;-55
2022/03/05 00:20:46;;;;;;;4.55;2.00;;;3.00;1.00;;;;;;5048772;28;20477;-53
2022/03/05 00:23:14;;;;;;;4.07;2.15;;;3.00;1.00;;;;;;5050383;28;20443;-54
2022/03/05 00:25:43;;;;;;;4.28;2.08;;;3.00;1.00;;;;;;5053339;28;20503;-55
2022/03/05 00:28:10;;;;;;;4.47;2.20;;;3.00;1.00;;;;;;5050857;28;20425;-53
2022/03/05 00:30:37;;;;;;;6.00;2.70;;;3.00;1.00;;;;;;5052682;28;20437;-51
2022/03/05 00:33:04;;;;;;;4.25;2.55;;;3.00;1.00;;;;;;5051980;28;20467;-51
2022/03/05 00:35:32;;;;;;;6.70;2.90;;;2.90;1.00;;;;;;5049317;28;20490;-54
2022/03/05 00:37:59;;;;;;;7.82;3.10;;;2.80;1.00;;;;;;5053956;28;20440;-53
2022/03/05 00:40:26;;;;;;;5.80;3.10;;;2.70;1.00;;;;;;5046993;28;20496;-50
2022/03/05 00:42:55;;;;;;;7.50;3.40;;;2.60;1.00;;;;;;5051516;28;20425;-53
2022/03/05 00:45:22;;;;;;;7.20;3.37;;;2.50;1.00;;;;;;5047893;28;20433;-53
2022/03/05 00:47:49;;;;;;;7.82;3.67;;;2.60;1.00;;;;;;5050727;28;20502;-55
2022/03/05 00:50:16;;;;;;;7.03;3.40;;;2.50;1.00;;;;;;5046148;28;20441;-51
2022/03/05 00:52:43;;;;;;;4.18;3.10;;;2.50;1.00;;;;;;5047268;28;20465;-54
2022/03/05 00:55:10;;;;;;;5.07;3.00;;;2.50;1.00;;;;;;5051059;28;20502;-52
2022/03/05 00:57:37;;;;;;;8.35;3.50;;;2.50;1.00;;;;;;5052548;28;20421;-53
2022/03/05 01:00:10;;;;;;;5.70;2.88;;;2.50;1.00;;;;;;5048530;28;20837;-53
2022/03/05 01:02:38;;;;;;;6.10;2.80;;;2.40;1.00;;;;;;5048661;28;20611;-53
2022/03/05 01:05:05;;;;;;;5.30;2.70;;;2.40;1.00;;;;;;5047878;28;20446;-51
2022/03/05 01:07:32;;;;;;;6.18;2.72;;;2.50;1.00;;;;;;5052053;28;21178;-50
2022/03/05 01:09:59;;;;;;;7.70;3.45;;;2.50;1.00;;;;;;5048162;28;20510;-52
2022/03/05 01:12:26;;;;;;;5.72;2.80;;;2.50;1.00;;;;;;5052570;28;20425;-52
2022/03/05 01:14:53;;;;;;;5.32;2.53;;;2.50;1.00;;;;;;5052279;28;20435;-54
2022/03/05 01:17:21;;;;;;;5.57;2.70;;;2.40;1.00;;;;;;5054102;28;20491;-51
2022/03/05 01:19:48;;;;;;;5.95;2.92;;;2.40;1.00;;;;;;5045695;28;21156;-53
2022/03/05 01:22:15;;;;;;;7.07;2.75;;;2.30;1.00;;;;;;5054747;28;20859;-50
2022/03/05 01:24:42;;;;;;;6.75;3.25;;;2.20;1.00;;;;;;5055043;28;20499;-54
2022/03/05 01:27:09;;;;;;;6.25;2.88;;;2.10;1.00;;;;;;5054512;28;20444;-53
2022/03/05 01:29:36;;;;;;;5.57;3.25;;;2.10;1.00;;;;;;5056536;28;20464;-49
2022/03/05 01:32:04;;;;;;;6.20;2.75;;;2.00;1.00;;;;;;5054658;28;20421;-54
2022/03/05 01:34:33;;;;;;;6.00;2.75;;;1.90;1.00;;;;;;5047330;28;20439;-52
2022/03/05 01:37:00;;;;;;;5.18;2.55;;;1.90;1.00;;;;;;5050522;28;20494;-53
2022/03/05 01:39:27;;;;;;;4.63;2.70;;;1.90;1.00;;;;;;5050299;28;20433;-51
2022/03/05 01:41:55;;;;;;;4.25;3.28;;;1.90;1.00;;;;;;5049691;28;20500;-50
2022/03/05 01:44:23;;;;;;;4.22;2.67;;;2.00;1.00;;;;;;5047417;28;20883;-54
2022/03/05 01:46:51;;;;;;;5.65;2.40;;;2.00;1.00;;;;;;5048568;28;20436;-52
2022/03/05 01:49:18;;;;;;;5.17;2.60;;;1.90;1.00;;;;;;5046966;28;20589;-51
2022/03/05 01:51:47;;;;;;;4.47;2.30;;;1.90;1.00;;;;;;5046290;28;20487;-52
2022/03/05 01:54:14;;;;;;;4.80;2.15;;;1.90;1.00;;;;;;5053757;28;20849;-53
2022/03/05 01:56:43;;;;;;;6.63;2.60;;;2.00;1.00;;;;;;5057399;28;20413;-54
2022/03/05 01:59:10;;;;;;;5.50;2.40;;;1.90;1.00;;;;;;5056735;28;20461;-51
2022/03/05 02:01:38;;;;;;;5.88;2.50;;;1.80;1.00;;;;;;5052212;28;20429;-53
2022/03/05 02:04:06;;;;;;;5.68;3.30;;;1.80;1.00;;;;;;5048248;28;20566;-48
2022/03/05 02:06:33;;;;;;;6.70;2.70;;;1.70;1.00;;;;;;5044256;28;20433;-47
2022/03/05 02:09:02;;;;;;;5.40;3.05;;;1.70;1.00;;;;;;5056315;28;20429;-50
2022/03/05 02:11:29;;;;;;;3.90;2.30;;;1.60;1.00;;;;;;5043125;28;20442;-53
2022/03/05 02:13:56;;;;;;;5.18;2.50;;;1.60;1.00;;;;;;5054114;28;20718;-51
2022/03/05 02:16:23;;;;;;;6.20;2.65;;;1.70;1.00;;;;;;5054983;28;20449;-49
2022/03/05 02:18:52;;;;;;;4.43;2.40;;;1.60;1.00;;;;;;5048497;28;20479;-52
2022/03/05 02:21:22;;;;;;;4.78;2.50;;;1.60;1.00;;;;;;5041694;28;20473;-54
2022/03/05 02:23:50;;;;;;;2.90;1.88;;;1.60;1.00;;;;;;5049792;28;20795;-53
2022/03/05 02:26:17;;;;;;;4.22;2.17;;;1.60;1.00;;;;;;5046831;28;20427;-54
2022/03/05 02:28:44;;;;;;;3.97;1.90;;;1.70;1.00;;;;;;5055802;28;20433;-53
2022/03/05 02:31:11;;;;;;;5.97;2.30;;;1.70;1.00;;;;;;5048860;28;20860;-49
2022/03/05 02:33:38;;;;;;;4.53;2.10;;;1.70;1.00;;;;;;5050789;28;20525;-53
2022/03/05 02:36:06;;;;;;;6.43;2.55;;;1.70;1.00;;;;;;5055477;28;20890;-50
2022/03/05 02:38:34;;;;;;;4.22;2.20;;;1.70;1.00;;;;;;5050438;28;20437;-53
2022/03/05 02:41:02;;;;;;;4.00;1.63;;;1.60;1.00;;;;;;5054309;28;20437;-53
2022/03/05 02:43:29;;;;;;;5.72;2.50;;;1.60;1.00;;;;;;5050147;28;20433;-53
2022/03/05 02:45:56;;;;;;;5.38;2.95;;;1.70;1.00;;;;;;5046429;28;20779;-50
2022/03/05 02:48:23;;;;;;;4.97;2.10;;;1.70;1.00;;;;;;5053105;28;20436;-53
2022/03/05 02:50:51;;;;;;;7.60;2.63;;;1.70;1.00;;;;;;5053053;28;20441;-51
2022/03/05 02:53:18;;;;;;;3.55;2.00;;;1.70;1.00;;;;;;5051754;28;20797;-50
2022/03/05 02:55:47;;;;;;;4.20;1.90;;;1.60;1.00;;;;;;5051346;28;20433;-50
2022/03/05 02:58:14;;;;;;;4.25;2.40;;;1.40;1.00;;;;;;5050881;28;20440;-49
2022/03/05 03:00:42;;;;;;;4.43;2.47;;;1.40;1.00;;;;;;5049270;28;20493;-50
2022/03/05 03:03:09;;;;;;;5.47;2.25;;;1.40;1.00;;;;;;5054204;28;20425;-53
2022/03/05 03:05:36;;;;;;;5.45;2.00;;;1.40;1.00;;;;;;5047765;28;20449;-51
2022/03/05 03:08:03;;;;;;;4.77;2.13;;;1.40;1.00;;;;;;5053763;28;20425;-53
2022/03/05 03:10:30;;;;;;;5.80;2.38;;;1.40;1.00;;;;;;5054005;28;20483;-50
2022/03/05 03:12:59;;;;;;;4.18;2.70;;;1.40;1.00;;;;;;5047176;28;20427;-50
2022/03/05 03:15:26;;;;;;;4.40;2.03;;;1.40;1.00;;;;;;5046561;28;20528;-51
2022/03/05 03:17:54;;;;;;;7.38;2.47;;;1.40;1.00;;;;;;5049822;28;20429;-51
2022/03/05 03:20:23;;;;;;;5.95;2.90;;;1.50;1.00;;;;;;5052387;28;20852;-48
2022/03/05 03:22:50;;;;;;;6.18;2.30;;;1.40;1.00;;;;;;5048593;28;20508;-52
2022/03/05 03:25:17;;;;;;;5.47;2.38;;;1.40;1.00;;;;;;5051484;28;20946;-50
2022/03/05 03:27:44;;;;;;;5.03;2.70;;;1.40;1.00;;;;;;5041835;28;20431;-49
2022/03/05 03:30:15;;;;;;;5.03;2.10;;;1.40;1.00;;;;;;5054068;28;20507;-48
2022/03/05 03:32:43;;;;;;;7.70;2.97;;;1.40;1.00;;;;;;5042132;28;20846;-49
2022/03/05 03:35:11;;;;;;;5.22;2.28;;;1.50;1.00;;;;;;5050342;28;20794;-52
2022/03/05 03:37:38;;;;;;;5.47;2.40;;;1.50;1.00;;;;;;5053784;28;20429;-51
2022/03/05 03:40:08;;;;;;;5.00;2.13;;;1.40;1.00;;;;;;5050314;28;20891;-47
2022/03/05 03:42:36;;;;;;;5.87;2.40;;;1.40;1.00;;;;;;5051823;28;20437;-53
2022/03/05 03:45:03;;;;;;;7.40;2.90;;;1.40;1.00;;;;;;5052987;28;20883;-53
2022/03/05 03:47:32;;;;;;;5.18;2.08;;;1.40;1.00;;;;;;5048394;28;20430;-53
2022/03/05 03:49:59;;;;;;;5.07;2.72;;;1.40;1.00;;;;;;5049507;28;20514;-53
2022/03/05 03:52:27;;;;;;;5.78;2.88;;;1.40;1.00;;;;;;5052429;28;20491;-49
2022/03/05 03:54:54;;;;;;;4.97;2.47;;;1.50;1.00;;;;;;5051729;28;20441;-54
2022/03/05 03:57:21;;;;;;;5.38;2.80;;;1.50;1.00;;;;;;5053427;28;20471;-51
2022/03/05 03:59:51;;;;;;;7.43;2.42;;;1.50;1.00;;;;;;5054248;28;20448;-50
2022/03/05 04:02:18;;;;;;;4.30;2.00;;;1.40;1.00;;;;;;5051520;28;20496;-53
2022/03/05 04:04:47;;;;;;;3.60;2.10;;;1.40;1.00;;;;;;5053475;28;20825;-49
2022/03/05 04:09:58;;;;;;;4.50;2.40;;;1.20;1.00;;;;;;5051797;28;20432;-52
2022/03/05 04:12:25;;;;;;;5.03;2.42;;;1.10;1.00;;;;;;5048044;28;20426;-52
2022/03/05 04:14:54;;;;;;;5.25;3.00;;;1.00;1.00;;;;;;5050796;28;20468;-50
2022/03/05 04:17:21;;;;;;;5.70;2.80;;;1.00;1.00;;;;;;5051817;28;20448;-53
2022/03/05 04:19:50;;;;;;;5.53;2.40;;;1.00;1.00;;;;;;5050455;28;20539;-51
2022/03/05 04:22:17;;;;;;;3.88;1.90;;;1.00;1.00;;;;;;5048797;28;20461;-54
2022/03/05 04:24:44;;;;;;;5.60;2.10;;;1.00;1.00;;;;;;5052329;28;20791;-53
2022/03/05 04:27:11;;;;;;;5.68;2.85;;;1.00;1.00;;;;;;5054094;28;20433;-51
2022/03/05 04:29:39;;;;;;;4.20;2.20;;;1.10;1.00;;;;;;5045018;28;20443;-52
2022/03/05 04:32:07;;;;;;;5.55;2.50;;;1.20;1.00;;;;;;5051171;28;20448;-54
2022/03/05 04:34:34;;;;;;;4.93;2.40;;;1.10;1.00;;;;;;5050138;28;20437;-54
2022/03/05 04:37:02;;;;;;;5.30;2.25;;;1.10;1.00;;;;;;5050700;28;20502;-53
2022/03/05 04:39:29;;;;;;;7.18;2.65;;;1.10;1.00;;;;;;5050406;28;20440;-51
2022/03/05 04:41:56;;;;;;;5.43;2.53;;;1.10;1.00;;;;;;5053033;28;20425;-50
2022/03/05 04:44:23;;;;;;;3.58;1.70;;;1.10;1.00;;;;;;5051949;28;21027;-52
2022/03/05 04:46:50;;;;;;;4.20;1.73;;;1.00;1.00;;;;;;5048206;28;20429;-50
2022/03/05 04:49:17;;;;;;;5.03;1.98;;;1.10;1.00;;;;;;5047282;28;20435;-54
2022/03/05 04:51:44;;;;;;;3.92;2.00;;;1.00;1.00;;;;;;5042114;28;20426;-52
2022/03/05 04:54:12;;;;;;;3.92;2.10;;;1.00;1.00;;;;;;5049264;28;20499;-52
2022/03/05 04:56:40;;;;;;;3.50;1.83;;;1.00;1.00;;;;;;5050367;28;20772;-49
2022/03/05 04:59:07;;;;;;;4.32;1.90;;;1.00;1.00;;;;;;5044431;28;20430;-52
2022/03/05 05:01:34;;;;;;;4.28;1.70;;;1.00;1.00;;;;;;5042636;28;20433;-51
2022/03/05 05:04:01;;;;;;;5.65;2.05;;;0.90;1.00;;;;;;5044882;28;20475;-53
2022/03/05 05:06:28;;;;;;;3.42;1.95;;;0.90;1.00;;;;;;5048485;28;20425;-54
2022/03/05 05:08:55;;;;;;;7.35;2.53;;;0.90;1.00;;;;;;5051194;28;20726;-53
2022/03/05 05:11:23;;;;;;;6.00;2.00;;;0.90;1.00;;;;;;5045902;28;20494;-51
2022/03/05 05:13:50;;;;;;;5.72;2.00;;;0.80;1.00;;;;;;5047155;28;20518;-55
2022/03/05 05:16:17;;;;;;;4.00;1.80;;;0.80;1.00;;;;;;5052910;28;20432;-54
2022/03/05 05:19:24;;;;;;;4.30;1.90;;;0.70;1.00;;;;;;5046209;28;20421;-54
2022/03/05 05:21:31;;;;;;;4.07;1.88;;;0.70;1.00;;;;;;5043139;28;20450;-54
2022/03/05 05:23:58;;;;;;;3.63;2.00;;;0.70;1.00;;;;;;5050274;28;20540;-51
2022/03/05 05:26:27;;;;;;;3.47;1.92;;;0.70;1.00;;;;;;5048763;28;20522;-50
2022/03/05 05:28:54;;;;;;;4.88;2.15;;;0.70;1.00;;;;;;5046710;28;20427;-54
2022/03/05 05:31:21;;;;;;;3.22;1.83;;;0.80;1.00;;;;;;5043057;28;20425;-49
2022/03/05 05:33:49;;;;;;;5.15;2.03;;;0.80;1.00;;;;;;5049116;28;20428;-53
2022/03/05 05:36:16;;;;;;;4.47;1.90;;;0.80;1.00;;;;;;5053818;28;20495;-53
2022/03/05 05:38:43;;;;;;;5.30;2.30;;;0.80;1.00;;;;;;5052794;28;20487;-51
2022/03/05 05:41:12;;;;;;;3.85;1.70;;;0.80;1.00;;;;;;5051823;28;20548;-53
2022/03/05 05:43:40;;;;;;;4.50;1.70;;;0.80;1.00;;;;;;5044104;28;20429;-52
2022/03/05 05:46:08;;;;;;;3.13;1.73;;;0.80;1.00;;;;;;5054174;28;20421;-54
2022/03/05 05:48:34;;;;;;;2.83;1.80;;;0.90;1.00;;;;;;5047617;28;20547;-50
2022/03/05 05:51:01;;;;;;;4.35;2.10;;;1.00;1.00;;;;;;5049749;28;20519;-53
2022/03/05 05:53:29;;;;;;;4.03;2.00;;;1.00;1.00;;;;;;5046761;28;20477;-52
2022/03/05 05:55:56;;;;;;;4.68;1.90;;;1.00;1.00;;;;;;5053116;28;20574;-53
2022/03/05 05:58:23;;;;;;;4.32;1.80;;;0.80;1.00;;;;;;5055305;28;20452;-52
2022/03/05 06:00:51;;;;;;;4.95;2.20;;;0.80;1.00;;;;;;5054509;28;20895;-54
2022/03/05 06:03:18;;;;;;;4.10;2.00;;;0.70;1.00;;;;;;5050618;28;20425;-52
2022/03/05 06:05:45;;;;;;;3.90;1.70;;;0.60;1.00;;;;;;5055971;28;20433;-53
2022/03/05 06:08:12;;;;;;;5.60;1.80;;;0.60;1.00;;;;;;5052404;28;20441;-55
2022/03/05 06:10:39;;;;;;;5.38;1.60;;;0.70;1.00;;;;;;5055120;28;20440;-54
2022/03/05 06:13:06;;;;;;;5.03;1.90;;;0.90;1.00;;;;;;5055710;28;20425;-52
2022/03/05 06:15:33;;;;;;;4.63;1.88;;;0.80;1.00;;;;;;5053940;28;20433;-55
2022/03/05 06:18:02;;;;;;;2.95;1.80;;;0.80;1.00;;;;;;5052704;28;20440;-54
2022/03/05 06:20:29;;;;;;;4.15;1.85;;;0.80;1.00;;;;;;5055402;28;20437;-52
2022/03/05 06:22:56;;;;;;;5.25;2.42;;;0.80;1.00;;;;;;5052434;28;20425;-53
2022/03/05 06:25:23;;;;;;;4.75;1.90;;;0.70;1.00;;;;;;5049448;28;20453;-54
2022/03/05 06:27:50;;;;;;;5.40;1.90;;;0.70;1.00;;;;;;5050304;28;20441;-50
2022/03/05 06:30:17;;;;;;;4.45;2.03;;;0.70;1.00;;;;;;5053680;28;20433;-53
2022/03/05 06:32:44;;;;;;;4.60;1.52;;;0.70;1.00;;;;;;5052309;28;20499;-50
2022/03/05 06:35:12;;;;;;;2.83;1.70;;;0.90;1.00;;;;;;5053548;28;20591;-52
2022/03/05 06:37:40;;;;;;;7.25;2.20;;;1.40;99.90;;;;;;5050840;28;20737;-52
2022/03/05 06:40:10;;;;;;;3.43;1.77;;;1.60;1.00;;;;;;5053793;28;20805;-51
2022/03/05 06:42:37;;;;;;;5.00;1.90;;;2.00;1.00;;;;;;5051946;28;20504;-54
2022/03/05 06:45:05;;;;;;;4.05;2.10;;;2.00;1.00;;;;;;5055272;28;20512;-51
2022/03/05 06:47:32;;;;;;;5.40;1.83;;;1.80;1.00;;;;;;5054475;28;20504;-51
2022/03/05 06:49:59;;;;;;;4.22;2.42;;;1.50;1.00;;;;;;5051883;28;20476;-53
2022/03/05 06:52:28;;;;;;;6.15;2.45;;;1.40;1.00;;;;;;5048813;28;20513;-51
2022/03/05 06:54:55;;;;;;;4.93;2.50;;;1.40;1.00;;;;;;5052077;28;20437;-52
2022/03/05 06:57:22;;;;;;;7.68;2.40;;;1.30;1.00;;;;;;5047460;28;20436;-52
2022/03/05 06:59:49;;;;;;;5.25;2.72;;;1.10;1.00;;;;;;5049884;28;20764;-53
2022/03/05 07:02:16;;;;;;;5.60;2.10;;;1.10;1.00;;;;;;5048148;28;20493;-50
2022/03/05 07:04:44;;;;;;;7.22;3.40;;;1.10;1.00;;;;;;5055386;28;20433;-49
2022/03/05 07:07:11;;;;;;;3.70;2.00;;;0.80;1.00;;;;;;5050669;28;20524;-51
2022/03/05 07:09:40;;;;;;;5.53;2.40;;;1.10;1.00;;;;;;5052890;28;20437;-52
2022/03/05 07:12:07;;;;;;;7.53;2.80;;;1.60;1.00;;;;;;5052297;28;20718;-49
2022/03/05 07:14:34;;;;;;;4.05;2.30;;;2.00;1.00;;;;;;5057318;28;20457;-49
2022/03/05 07:17:01;;;;;;;5.55;2.58;;;2.30;1.00;;;;;;5058790;28;20864;-48
2022/03/05 07:19:28;;;;;;;5.35;3.05;;;2.50;1.00;;;;;;5055165;28;20499;-48
2022/03/05 07:21:55;;;;;;;5.72;2.80;;;2.70;1.00;;;;;;5048305;28;20480;-52
2022/03/05 07:24:23;;;;;;;6.93;3.70;;;3.00;1.00;;;;;;5052961;28;20473;-51
2022/03/05 07:26:51;;;;;;;6.13;3.17;;;3.10;1.00;;;;;;5047961;28;20440;-48
2022/03/05 07:29:18;;;;;;;13.32;3.40;;;3.20;1.00;;;;;;5053751;28;20429;-51
2022/03/05 07:31:45;;;;;;;7.80;3.00;;;3.40;1.00;;;;;;5051200;28;20486;-50
2022/03/05 07:34:12;;;;;;;5.80;2.70;;;3.50;1.00;;;;;;5049543;28;20572;-50
2022/03/05 07:36:39;;;;;;;4.30;3.00;;;3.50;1.00;;;;;;5051768;28;20439;-60
2022/03/05 07:39:07;;;;;;;5.87;2.90;;;3.60;1.00;;;;;;5048784;28;20487;-59
2022/03/05 07:41:34;;;;;;;5.60;2.60;;;3.70;1.00;;;;;;5053662;28;20458;-60
2022/03/05 07:44:03;;;;;;;6.97;3.50;;;3.60;1.00;;;;;;5051646;28;20499;-64
2022/03/05 07:46:30;;;;;;;4.70;2.67;;;3.60;1.00;;;;;;5052833;28;20433;-60
2022/03/05 07:48:57;;;;;;;7.22;3.70;;;3.60;1.00;;;;;;5051909;28;20441;-59
2022/03/05 07:51:24;;;;;;;8.45;4.10;;;3.40;1.00;;;;;;5052278;28;20479;-62
2022/03/05 07:53:51;;;;;;;8.40;4.00;;;2.90;1.00;;;;;;5049965;28;20436;-60
2022/03/05 07:56:19;;;;;;;8.68;4.10;;;3.00;1.00;;;;;;5052887;28;20546;-61
2022/03/05 07:58:46;;;;;;;6.47;3.65;;;3.20;1.00;;;;;;5048662;28;20427;-60
2022/03/05 08:01:17;;;;;;;10.60;3.60;;;3.40;1.00;;;;;;5049862;28;20443;-60
2022/03/05 08:03:44;;;;;;;5.70;3.42;;;3.40;1.00;;;;;;5050314;28;20467;-60
2022/03/05 08:06:11;;;;;;;7.55;3.13;;;3.40;1.00;;;;;;5047364;28;20760;-60
2022/03/05 08:08:39;;;;;;;8.18;4.25;;;3.50;1.00;;;;;;5052405;28;20875;-60
2022/03/05 08:11:06;;;;;;;7.25;3.83;;;3.40;1.00;;;;;;5051448;28;20796;-60
2022/03/05 08:13:33;;;;;;;7.43;3.90;;;3.10;1.00;;;;;;5046997;28;20511;-61
2022/03/05 08:16:00;;;;;;;8.68;4.38;;;3.30;1.00;;;;;;5051762;28;20444;-61
2022/03/05 08:18:28;;;;;;;5.97;3.38;;;3.20;1.00;;;;;;5045884;28;20523;-62
2022/03/05 08:20:55;;;;;;;8.82;4.13;;;3.50;1.00;;;;;;5046829;28;20946;-62
2022/03/05 08:23:22;;;;;;;6.50;3.95;;;3.60;1.00;;;;;;5052182;28;20460;-61
2022/03/05 08:25:49;;;;;;;7.40;4.57;;;3.80;1.00;;;;;;5051792;28;20486;-61
2022/03/05 08:28:17;;;;;;;7.80;4.63;;;4.10;1.00;;;;;;5053251;28;20429;-62
2022/03/05 08:30:44;;;;;;;7.90;4.68;;;4.00;1.00;;;;;;5049697;28;20444;-64
2022/03/05 08:33:11;;;;;;;6.53;4.10;;;3.80;1.00;;;;;;5045593;28;20514;-62
2022/03/05 08:35:40;;;;;;;8.05;3.53;;;3.90;1.00;;;;;;5050365;28;20933;-65
2022/03/05 08:38:07;;;;;;;9.23;3.63;;;3.90;1.00;;;;;;5046823;28;20426;-63
2022/03/05 08:40:34;;;;;;;19.58;6.95;;;3.90;1.00;;;;;;5051800;28;20445;-63
2022/03/05 08:43:01;;;;;;;11.82;4.38;;;4.10;1.00;;;;;;5051912;28;20421;-62
2022/03/05 08:45:28;;;;;;;9.93;4.63;;;4.20;1.00;;;;;;5050142;28;20430;-62
2022/03/05 08:47:56;;;;;;;8.02;4.30;;;4.40;1.00;;;;;;5045062;28;20437;-62
2022/03/05 08:50:23;;;;;;;7.97;4.82;;;4.50;1.00;;;;;;5045416;28;20854;-65
2022/03/05 08:52:52;;;;;;;8.73;5.47;;;4.60;1.00;;;;;;5048036;28;20429;-62
2022/03/05 08:55:19;;;;;;;7.32;4.28;;;4.60;1.00;;;;;;5045692;28;20474;-62
2022/03/05 08:57:46;;;;;;;7.28;3.72;;;4.80;1.00;;;;;;5049858;28;20437;-62
2022/03/05 09:00:15;;;;;;;10.40;4.77;;;5.00;1.00;;;;;;5046234;28;20523;-63
2022/03/05 09:02:42;;;;;;;6.00;3.50;;;4.90;1.00;;;;;;5049115;28;20427;-63
2022/03/05 09:05:10;;;;;;;10.27;5.00;;;4.80;1.00;;;;;;5056725;28;20475;-62
2022/03/05 09:07:37;;;;;;;9.25;4.97;;;4.90;1.00;;;;;;5046568;28;20444;-62
2022/03/05 09:10:08;;;;;;;7.28;4.38;;;4.90;1.00;;;;;;5048051;28;20437;-62
2022/03/05 09:12:35;;;;;;;7.20;4.72;;;5.00;1.00;;;;;;5052692;28;20413;-62
2022/03/05 09:15:02;;;;;;;8.73;4.38;;;5.20;1.00;;;;;;5043720;28;20498;-63
2022/03/05 09:17:29;;;;;;;6.60;4.18;;;5.30;1.00;;;;;;5050312;28;20475;-63
2022/03/05 09:19:57;;;;;;;8.52;4.80;;;4.80;1.00;;;;;;5041313;28;20430;-62
2022/03/05 09:22:24;;;;;;;8.95;4.40;;;4.80;1.00;;;;;;5051925;28;20829;-62
2022/03/05 09:24:52;;;;;;;8.15;4.15;;;4.70;1.00;;;;;;5047064;28;20468;-62
2022/03/05 09:27:23;;;;;;;6.47;3.55;;;4.50;1.00;;;;;;5044979;28;20453;-62
2022/03/05 09:29:54;;;;;;;5.72;3.17;;;4.80;1.00;;;;;;5028522;28;20896;-62
2022/03/05 09:32:21;;;;;;;6.72;3.38;;;5.00;1.00;;;;;;5048903;28;21043;-62
2022/03/05 09:34:50;;;;;;;10.02;5.63;;;4.80;1.00;;;;;;5052686;28;20436;-61
2022/03/05 09:37:20;;;;;;;8.85;5.38;;;4.60;1.00;;;;;;5055834;28;20436;-62
2022/03/05 09:39:48;;;;;;;7.15;4.15;;;4.50;1.00;;;;;;5054010;28;20806;-62
2022/03/05 09:42:18;;;;;;;10.47;6.00;;;4.50;1.00;;;;;;5051634;28;20436;-63
2022/03/05 09:44:50;;;;;;;6.28;3.00;;;4.50;1.00;;;;;;5052499;28;20847;-62
2022/03/05 09:47:19;;;;;;;5.20;2.60;;;4.50;1.00;;;;;;5049746;28;20487;-62
2022/03/05 09:49:50;;;;;;;6.07;3.47;;;4.40;1.00;;;;;;5054366;28;20437;-63
2022/03/05 09:52:21;;;;;;;6.10;3.17;;;4.50;1.00;;;;;;5049495;28;20909;-62
2022/03/05 09:54:49;;;;;;;6.18;3.08;;;4.60;1.00;;;;;;5042874;28;20755;-63
2022/03/05 09:57:16;;;;;;;5.40;2.97;;;4.80;1.00;;;;;;5052555;28;20487;-63
2022/03/05 09:59:47;;;;;;;5.70;2.50;;;4.90;1.00;;;;;;5049474;28;20893;-62
2022/03/05 10:02:20;;;;;;;4.40;2.40;;;5.20;1.00;;;;;;5047913;28;20433;-62
2022/03/05 10:04:47;;;;;;;5.13;2.70;;;5.30;1.00;;;;;;5042365;28;20457;-62
2022/03/05 10:07:15;;;;;;;5.18;2.78;;;5.40;1.00;;;;;;5045948;28;20448;-62
2022/03/05 10:09:45;;;;;;;5.33;2.60;;;5.60;1.00;;;;;;5041626;28;20437;-63
2022/03/05 10:12:29;;;;;;;5.60;2.72;;;5.90;1.00;;;;;;5050045;28;21009;-63
2022/03/05 10:15:21;;;;;;;6.18;2.50;;;6.00;1.00;;;;;;5048356;28;20714;-63
2022/03/05 10:18:07;;;;;;;3.63;1.77;;;6.30;1.00;;;;;;5048312;28;20466;-63
2022/03/05 10:20:36;;;;;;;3.70;1.80;;;6.40;1.00;;;;;;5050169;28;20440;-64
2022/03/05 10:23:06;;;;;;;5.07;2.10;;;6.50;1.00;;;;;;5053829;28;20455;-63
2022/03/05 10:25:36;;;;;;;4.43;2.00;;;6.90;1.00;;;;;;5051970;28;20440;-62
2022/03/05 10:28:10;;;;;;;5.22;1.88;;;7.30;1.00;;;;;;5053231;28;20460;-63
2022/03/05 10:30:38;;;;;;;5.13;2.63;;;7.30;1.00;;;;;;5052112;28;20573;-63
2022/03/05 10:33:08;;;;;;;4.60;2.45;;;7.40;1.00;;;;;;5052219;28;20425;-64
2022/03/05 10:35:35;;;;;;;5.30;2.63;;;7.40;1.00;;;;;;5053454;28;20520;-63
2022/03/05 10:38:03;;;;;;;5.55;2.30;;;7.30;1.00;;;;;;5052496;28;20498;-62
2022/03/05 10:40:33;;;;;;;6.25;2.88;;;7.40;1.00;;;;;;5052724;28;20934;-62
2022/03/05 10:43:02;;;;;;;5.18;2.00;;;7.80;1.00;;;;;;5051806;28;20479;-62
2022/03/05 10:45:30;;;;;;;4.17;2.30;;;8.00;1.00;;;;;;5052470;28;20491;-62
2022/03/05 10:47:59;;;;;;;4.90;2.90;;;8.10;1.00;;;;;;5051485;28;20848;-62
2022/03/05 10:50:29;;;;;;;4.72;1.80;;;8.50;1.00;;;;;;5054416;28;20433;-61
2022/03/05 10:53:00;;;;;;;4.57;2.20;;;8.80;1.00;;;;;;5052350;28;20427;-62
2022/03/05 10:55:29;;;;;;;5.33;2.50;;;8.80;1.00;;;;;;5054434;28;20425;-63
2022/03/05 10:58:01;;;;;;;6.50;2.20;;;9.00;1.00;;;;;;5049160;28;20417;-61
2022/03/05 11:00:29;;;;;;;6.80;2.97;;;9.10;1.00;;;;;;5046431;28;20425;-62
2022/03/05 11:02:58;;;;;;;4.57;2.78;;;9.10;1.00;;;;;;5052697;28;20429;-62
2022/03/05 11:05:28;;;;;;;4.80;2.30;;;9.10;1.00;;;;;;5053640;28;20533;-63
2022/03/05 11:07:56;;;;;;;5.20;3.15;;;9.30;1.00;;;;;;5052326;28;20418;-62
2022/03/05 11:10:26;;;;;;;4.18;2.00;;;9.50;1.00;;;;;;5048901;28;20424;-62
2022/03/05 11:12:56;;;;;;;5.35;2.97;;;9.80;1.00;;;;;;5046572;28;20494;-62
2022/03/05 11:15:24;;;;;;;5.40;2.70;;;9.90;1.00;;;;;;5048826;28;20437;-65
2022/03/05 11:17:51;;;;;;;4.03;1.93;;;9.70;1.00;;;;;;5046961;28;20460;-64
2022/03/05 11:20:18;;;;;;;4.30;2.27;;;9.30;1.00;;;;;;5045021;28;20953;-65
2022/03/05 11:22:49;;;;;;;4.05;1.80;;;8.90;1.00;;;;;;5048250;28;20818;-64
2022/03/05 11:25:20;;;;;;;4.65;2.47;;;8.90;1.00;;;;;;5050556;28;20516;-64
2022/03/05 11:27:58;;;;;;;4.20;2.90;;;8.80;1.00;;;;;;5051844;28;20524;-64
2022/03/05 11:30:26;;;;;;;3.58;1.90;;;8.60;1.00;;;;;;5050418;28;20989;-64
2022/03/05 11:32:53;;;;;;;4.63;2.20;;;8.20;1.00;;;;;;5044274;28;20519;-65
2022/03/05 11:35:22;;;;;;;3.40;1.90;;;8.30;1.00;;;;;;5051951;28;20432;-66
2022/03/05 11:37:52;;;;;;;3.38;1.90;;;8.50;1.00;;;;;;5049983;28;20913;-65
2022/03/05 11:40:34;;;;;;;6.30;3.47;;;8.90;1.00;;;;;;5051101;28;20493;-65
2022/03/05 11:43:16;;;;;;;4.80;2.50;;;8.90;1.00;;;;;;5048186;28;20421;-66
2022/03/05 11:45:56;;;;;;;3.05;1.50;;;8.90;1.00;;;;;;5050741;28;20464;-65
2022/03/05 11:48:27;;;;;;;3.25;1.70;;;8.60;99.90;;;;;;5048693;28;20844;-65
2022/03/05 11:50:56;;;;;;;3.78;2.15;;;8.90;99.90;;;;;;5053561;28;20849;-66
2022/03/05 11:53:25;;;;;;;3.55;2.10;;;9.30;1.00;;;;;;5047138;28;20429;-66
2022/03/05 11:55:52;;;;;;;4.43;2.05;;;9.70;1.00;;;;;;5051399;28;20440;-64
2022/03/05 11:58:34;;;;;;;3.80;1.80;;;9.70;1.00;;;;;;5051787;28;20436;-65
2022/03/05 12:01:33;;;;;;;2.90;1.40;;;9.20;99.90;;;;;;5053017;28;20429;-64
2022/03/05 12:04:05;;;;;;;2.78;1.70;;;8.90;99.90;;;;;;5049466;28;20508;-64
2022/03/05 12:06:44;;;;;;;2.40;1.30;;;8.60;99.90;;;;;;5050679;28;20426;-64
2022/03/05 12:09:40;;;;;;;3.67;1.60;;;8.60;99.90;;;;;;5051251;28;20756;-65
2022/03/05 12:12:09;;;;;;;3.55;1.42;;;8.70;99.90;;;;;;5050401;28;20465;-64
2022/03/05 12:15:22;;;;;;;3.50;1.58;;;8.50;99.90;;;;;;5051343;28;20473;-64
2022/03/05 12:17:50;;;;;;;4.07;1.70;;;8.60;99.90;;;;;;5050945;28;20931;-64
2022/03/05 12:20:25;;;;;;;3.10;1.40;;;9.10;99.90;;;;;;5048072;28;20432;-64
2022/03/05 12:22:58;;;;;;;1.83;1.20;;;9.20;99.90;;;;;;5049708;28;20429;-64
2022/03/05 12:25:28;;;;;;;3.80;1.50;;;9.40;99.90;;;;;;5049899;28;20444;-64
2022/03/05 12:27:56;;;;;;;2.85;1.60;;;9.30;99.90;;;;;;5050206;28;20518;-66
2022/03/05 12:30:26;;;;;;;3.20;1.50;;;8.40;99.90;;;;;;5050314;28;20433;-66
2022/03/05 12:32:55;;;;;;;3.22;1.40;;;8.20;99.90;;;;;;5050108;28;20512;-65
2022/03/05 12:35:23;;;;;;;2.95;1.40;;;8.30;99.90;;;;;;5050192;28;20452;-65
2022/03/05 12:37:51;;;;;;;2.78;1.42;;;8.60;99.90;;;;;;5047612;28;20703;-65
2022/03/05 12:40:19;;;;;;;2.85;1.30;;;8.90;99.90;;;;;;5049973;28;20464;-64
2022/03/05 12:42:49;;;;;;;4.30;1.33;;;9.20;99.90;;;;;;5050311;28;20902;-64
2022/03/05 12:45:20;;;;;;;3.03;1.50;;;9.20;99.90;;;;;;5050049;28;20506;-64
2022/03/05 12:47:48;;;;;;;2.38;1.30;;;9.30;99.90;;;;;;5049890;28;20572;-63
2022/03/05 12:50:23;;;;;;;3.17;1.47;;;9.70;99.90;;;;;;5047979;28;20457;-64
2022/03/05 12:53:08;;;;;;;2.50;1.20;;;10.10;99.90;;;;;;5050176;28;20483;-65
2022/03/05 12:55:39;;;;;;;4.05;1.40;;;10.10;99.90;;;;;;5046390;28;20752;-66
2022/03/05 12:58:10;;;;;;;3.20;1.63;;;10.20;99.90;;;;;;5050550;28;20456;-62
2022/03/05 13:00:37;;;;;;;2.15;1.40;;;10.20;99.90;;;;;;5045411;28;20522;-62
2022/03/05 13:03:06;;;;;;;3.20;1.20;;;9.70;99.90;;;;;;5051014;28;20417;-64
2022/03/05 13:05:33;;;;;;;2.80;1.50;;;9.50;99.90;;;;;;5051462;28;20926;-64
2022/03/05 13:08:04;;;;;;;3.55;1.40;;;9.50;99.90;;;;;;5054196;28;20421;-65
2022/03/05 13:10:32;;;;;;;2.30;1.10;;;9.40;99.90;;;;;;5047427;28;20426;-64
2022/03/05 13:12:59;;;;;;;2.53;1.40;;;9.30;99.90;;;;;;5055027;28;20421;-64
2022/03/05 13:15:29;;;;;;;2.35;1.20;;;9.40;99.90;;;;;;5048980;28;20440;-64